createdAt,value
2022-11-27T00:01:45.287Z,101462.06
2022-11-27T00:04:15.206Z,101459.44
2022-11-27T00:06:45.120Z,101457.69
2022-11-27T00:09:17.562Z,101463.78
2022-11-27T00:11:49.795Z,101458.56
2022-11-27T00:14:20.366Z,101460.31
2022-11-27T00:16:50.031Z,101452.44
2022-11-27T00:19:19.600Z,101439.31
2022-11-27T00:21:49.402Z,101442.84
2022-11-27T00:24:20.256Z,101441.09
2022-11-27T00:26:52.446Z,101450.72
2022-11-27T00:29:22.059Z,101448.06
2022-11-27T00:31:51.602Z,101435.81
2022-11-27T00:34:21.152Z,101429.72
2022-11-27T00:36:50.903Z,101420.09
2022-11-27T00:39:20.926Z,101426.22
2022-11-27T00:41:53.082Z,101427.09
2022-11-27T00:44:22.769Z,101419.25
2022-11-27T00:46:52.406Z,101427.13
2022-11-27T00:49:22.095Z,101428.00
2022-11-27T00:51:51.619Z,101424.47
2022-11-27T00:54:22.914Z,101418.38
2022-11-27T00:56:55.211Z,101418.38
2022-11-27T00:59:24.810Z,101427.97
2022-11-27T01:01:54.652Z,101417.47
2022-11-27T01:04:24.251Z,101419.25
2022-11-27T01:06:53.820Z,101427.97
2022-11-27T01:09:23.389Z,101422.75
2022-11-27T01:11:55.800Z,101427.13
2022-11-27T01:14:25.375Z,101423.59
2022-11-27T01:16:55.156Z,101422.75
2022-11-27T01:19:24.782Z,101423.59
2022-11-27T01:21:54.414Z,101427.97
2022-11-27T01:24:24.004Z,101425.34
2022-11-27T01:26:56.134Z,101423.59
2022-11-27T01:29:25.747Z,101424.50
2022-11-27T01:31:55.306Z,101424.47
2022-11-27T01:34:25.120Z,101418.38
2022-11-27T01:36:54.739Z,101414.88
2022-11-27T01:39:24.863Z,101418.34
2022-11-27T01:41:57.019Z,101418.34
2022-11-27T01:44:49.870Z,101416.59
2022-11-27T01:47:26.874Z,101414.84
2022-11-27T01:49:58.308Z,101413.13
2022-11-27T01:52:30.876Z,101404.41
2022-11-27T01:55:02.682Z,101400.03
2022-11-27T01:57:38.854Z,101405.25
2022-11-27T02:00:13.052Z,101391.28
2022-11-27T02:02:42.666Z,101394.75
2022-11-27T02:05:14.384Z,101393.03
2022-11-27T02:07:44.207Z,101384.31
2022-11-27T02:10:14.562Z,101382.56
2022-11-27T02:12:53.697Z,101381.69
2022-11-27T02:15:28.244Z,101382.56
2022-11-27T02:18:00.643Z,101358.97
2022-11-27T02:20:39.495Z,101375.56
2022-11-27T02:23:34.317Z,101348.50
2022-11-27T02:26:14.911Z,101347.59
2022-11-27T02:29:02.873Z,101345.84
2022-11-27T02:31:40.706Z,101345.00
2022-11-27T02:34:18.489Z,101349.38
2022-11-27T02:36:53.398Z,101351.09
2022-11-27T02:39:26.444Z,101357.22
2022-11-27T02:42:00.626Z,101358.09
2022-11-27T02:44:29.942Z,101366.81
2022-11-27T02:47:02.320Z,101367.69
2022-11-27T02:49:32.077Z,101358.09
2022-11-27T02:52:03.094Z,101362.47
2022-11-27T02:54:33.823Z,101346.75
2022-11-27T02:57:05.754Z,101332.75
2022-11-27T02:59:36.802Z,101331.00
2022-11-27T03:02:17.107Z,101314.44
2022-11-27T03:04:50.413Z,101307.47
2022-11-27T03:07:25.513Z,101316.19
2022-11-27T03:09:58.628Z,101322.28
2022-11-27T03:12:28.186Z,101317.06
2022-11-27T03:14:57.737Z,101304.84
2022-11-27T03:17:39.364Z,101316.19
2022-11-27T03:20:13.495Z,101301.34
2022-11-27T03:22:43.075Z,101290.00
2022-11-27T03:25:12.671Z,101275.16
2022-11-27T03:27:44.896Z,101277.78
2022-11-27T03:30:15.772Z,101281.25
2022-11-27T03:32:47.980Z,101281.25
2022-11-27T03:35:19.725Z,101295.25
2022-11-27T03:37:49.284Z,101283.88
2022-11-27T03:40:19.460Z,101304.81
2022-11-27T03:42:57.718Z,101302.19
2022-11-27T03:45:32.481Z,101303.06
2022-11-27T03:48:12.558Z,101296.97
2022-11-27T03:50:53.147Z,101296.09
2022-11-27T03:53:27.766Z,101311.81
2022-11-27T03:56:06.736Z,101292.63
2022-11-27T03:58:41.367Z,101290.00
2022-11-27T04:01:14.471Z,101287.34
2022-11-27T04:03:46.710Z,101286.47
2022-11-27T04:06:16.283Z,101282.13
2022-11-27T04:08:46.045Z,101274.25
2022-11-27T04:11:15.701Z,101277.75
2022-11-27T04:13:45.443Z,101275.13
2022-11-27T04:16:15.134Z,101267.25
2022-11-27T04:18:47.514Z,101260.28
2022-11-27T04:21:17.136Z,101263.75
2022-11-27T04:23:47.201Z,101263.75
2022-11-27T04:26:16.749Z,101262.03
2022-11-27T04:28:46.297Z,101258.53
2022-11-27T04:31:15.851Z,101253.25
2022-11-27T04:33:48.024Z,101252.34
2022-11-27T04:36:17.563Z,101240.97
2022-11-27T04:38:47.123Z,101239.25
2022-11-27T04:41:16.625Z,101218.25
2022-11-27T04:43:46.163Z,101206.03
2022-11-27T04:46:15.700Z,101197.28
2022-11-27T04:48:47.849Z,101199.03
2022-11-27T04:51:17.378Z,101196.38
2022-11-27T04:53:46.938Z,101198.13
2022-11-27T04:56:16.748Z,101191.13
2022-11-27T04:58:46.298Z,101193.75
2022-11-27T05:01:15.977Z,101195.47
2022-11-27T05:03:49.813Z,101187.59
2022-11-27T05:06:19.463Z,101196.34
2022-11-27T05:08:49.004Z,101193.69
2022-11-27T05:11:20.294Z,101195.44
2022-11-27T05:14:09.979Z,101190.19
2022-11-27T05:16:39.537Z,101194.53
2022-11-27T05:19:11.825Z,101199.75
2022-11-27T05:21:41.747Z,101198.88
2022-11-27T05:24:11.863Z,101196.25
2022-11-27T05:26:42.115Z,101191.88
2022-11-27T05:29:12.742Z,101181.38
2022-11-27T05:31:42.359Z,101164.72
2022-11-27T05:34:14.876Z,101170.84
2022-11-27T05:36:44.439Z,101180.44
2022-11-27T05:39:14.343Z,101179.56
2022-11-27T05:41:45.696Z,101159.44
2022-11-27T05:44:16.638Z,101168.16
2022-11-27T05:46:46.753Z,101168.16
2022-11-27T05:49:19.611Z,101169.88
2022-11-27T05:51:51.353Z,101153.28
2022-11-27T05:54:21.801Z,101150.63
2022-11-27T05:56:51.405Z,101160.25
2022-11-27T05:59:21.422Z,101158.50
2022-11-27T06:01:51.990Z,101155.00
2022-11-27T06:04:24.421Z,101152.34
2022-11-27T06:06:53.969Z,101150.63
2022-11-27T06:09:23.747Z,101149.75
2022-11-27T06:11:53.282Z,101145.34
2022-11-27T06:14:22.950Z,101149.72
2022-11-27T06:16:52.506Z,101147.09
2022-11-27T06:19:25.033Z,101140.06
2022-11-27T06:21:54.594Z,101130.47
2022-11-27T06:24:24.511Z,101128.72
2022-11-27T06:26:54.037Z,101136.59
2022-11-27T06:29:23.623Z,101124.34
2022-11-27T06:31:53.334Z,101123.47
2022-11-27T06:34:25.618Z,101124.31
2022-11-27T06:36:55.192Z,101119.94
2022-11-27T06:39:24.797Z,101116.44
2022-11-27T06:41:54.520Z,101113.81
2022-11-27T06:44:24.073Z,101124.28
2022-11-27T06:46:53.620Z,101115.50
2022-11-27T06:49:26.011Z,101104.16
2022-11-27T06:51:55.618Z,101100.69
2022-11-27T06:54:25.320Z,101094.53
2022-11-27T06:56:55.014Z,101101.56
2022-11-27T06:59:24.637Z,101084.94
2022-11-27T07:01:54.213Z,101093.69
2022-11-27T07:04:26.406Z,101099.81
2022-11-27T07:06:56.885Z,101091.06
2022-11-27T07:09:26.431Z,101096.28
2022-11-27T07:11:56.079Z,101088.34
2022-11-27T07:14:25.687Z,101081.38
2022-11-27T07:16:55.267Z,101084.84
2022-11-27T07:19:27.568Z,101072.59
2022-11-27T07:21:57.082Z,101070.78
2022-11-27T07:24:26.721Z,101066.38
2022-11-27T07:26:56.217Z,101069.00
2022-11-27T07:29:26.003Z,101066.31
2022-11-27T07:31:55.831Z,101074.13
2022-11-27T07:34:28.286Z,101061.84
2022-11-27T07:36:57.815Z,101056.50
2022-11-27T07:39:46.653Z,101052.97
2022-11-27T07:42:37.497Z,101053.81
2022-11-27T07:45:07.184Z,101054.66
2022-11-27T07:47:36.758Z,101036.19
2022-11-27T07:50:10.959Z,101038.78
2022-11-27T07:52:42.181Z,101052.75
2022-11-27T07:55:12.379Z,101038.69
2022-11-27T07:57:42.467Z,101035.16
2022-11-27T08:00:13.599Z,101019.31
2022-11-27T08:02:43.120Z,101030.63
2022-11-27T08:05:15.382Z,101015.66
2022-11-27T08:07:45.034Z,101014.69
2022-11-27T08:10:14.865Z,101008.47
2022-11-27T08:12:44.400Z,101009.22
2022-11-27T08:15:14.542Z,101016.13
2022-11-27T08:17:44.075Z,101016.97
2022-11-27T08:20:16.419Z,101017.78
2022-11-27T08:22:45.951Z,101006.31
2022-11-27T08:25:15.532Z,100997.47
2022-11-27T08:27:46.298Z,101007.97
2022-11-27T08:30:16.727Z,100995.63
2022-11-27T08:32:46.697Z,100994.66
2022-11-27T08:35:19.030Z,101006.84
2022-11-27T08:37:48.759Z,101016.34
2022-11-27T08:40:18.505Z,101010.97
2022-11-27T08:42:48.127Z,101000.25
2022-11-27T08:45:18.428Z,101005.41
2022-11-27T08:47:47.955Z,101024.56
2022-11-27T08:50:20.223Z,101041.91
2022-11-27T08:52:49.761Z,101016.31
2022-11-27T08:55:19.597Z,101013.59
2022-11-27T08:57:49.120Z,101019.72
2022-11-27T09:00:24.933Z,101017.03
2022-11-27T09:02:57.184Z,101006.50
2022-11-27T09:05:29.415Z,101009.97
2022-11-27T09:07:59.757Z,101013.53
2022-11-27T09:10:29.430Z,101009.97
2022-11-27T09:12:59.649Z,101008.22
2022-11-27T09:15:29.245Z,100995.88
2022-11-27T09:17:58.777Z,101001.09
2022-11-27T09:20:31.043Z,100994.84
2022-11-27T09:23:02.471Z,100987.84
2022-11-27T09:25:32.071Z,100985.19
2022-11-27T09:28:01.829Z,100977.25
2022-11-27T09:30:31.428Z,100989.47
2022-11-27T09:33:02.163Z,100986.78
2022-11-27T09:35:34.518Z,100979.66
2022-11-27T09:38:04.182Z,100982.25
2022-11-27T09:40:33.952Z,100973.47
2022-11-27T09:43:09.791Z,100965.47
2022-11-27T09:45:46.688Z,100961.81
2022-11-27T09:48:21.043Z,100960.75
2022-11-27T09:50:55.090Z,100960.53
2022-11-27T09:53:32.018Z,100962.91
2022-11-27T09:56:03.441Z,100948.75
2022-11-27T09:58:39.447Z,100945.19
2022-11-27T10:01:16.664Z,100943.31
2022-11-27T10:03:47.674Z,100956.38
2022-11-27T10:06:26.228Z,100944.81
2022-11-27T10:09:08.021Z,100936.81
2022-11-27T10:11:42.720Z,100945.47
2022-11-27T10:14:25.322Z,100943.50
2022-11-27T10:16:58.962Z,100942.44
2022-11-27T10:19:34.374Z,100936.94
2022-11-27T10:22:17.937Z,100942.88
2022-11-27T10:24:59.580Z,100939.25
2022-11-27T10:27:34.483Z,100934.72
2022-11-27T10:30:04.433Z,100935.53
2022-11-27T10:35:28.369Z,100926.56
2022-11-27T10:38:06.830Z,100917.59
2022-11-27T10:40:40.480Z,100909.44
2022-11-27T10:43:13.944Z,100907.34
2022-11-27T10:45:47.054Z,100903.59
2022-11-27T10:48:17.162Z,100890.34
2022-11-27T10:50:47.792Z,100911.47
2022-11-27T10:53:28.154Z,100901.81
2022-11-27T10:56:31.208Z,100902.53
2022-11-27T10:59:04.480Z,100883.94
2022-11-27T11:01:45.045Z,100877.94
2022-11-27T11:04:36.947Z,100875.44
2022-11-27T11:07:06.112Z,100868.50
2022-11-27T11:09:38.865Z,100866.81
2022-11-27T11:12:12.190Z,100877.34
2022-11-27T11:14:42.170Z,100868.63
2022-11-27T11:17:18.459Z,100862.59
2022-11-27T11:19:48.623Z,100855.63
2022-11-27T11:22:19.394Z,100848.59
2022-11-27T11:24:53.274Z,100838.88
2022-11-27T11:27:25.837Z,100832.66
2022-11-27T11:29:56.746Z,100822.97
2022-11-27T11:32:28.514Z,100810.53
2022-11-27T11:35:01.748Z,100806.81
2022-11-27T11:37:32.996Z,100796.13
2022-11-27T11:40:14.797Z,100803.22
2022-11-27T11:42:54.387Z,100797.88
2022-11-27T11:45:28.620Z,100798.69
2022-11-27T11:48:02.777Z,100783.66
2022-11-27T11:50:36.562Z,100780.25
2022-11-27T11:53:11.095Z,100779.38
2022-11-27T11:55:48.282Z,100768.84
2022-11-27T11:58:38.752Z,100770.72
2022-11-27T12:01:29.102Z,100761.06
2022-11-27T12:04:10.486Z,100740.03
2022-11-27T12:06:51.321Z,100712.75
2022-11-27T12:09:42.093Z,100727.00
2022-11-27T12:12:24.311Z,100717.56
2022-11-27T12:14:57.956Z,100713.34
2022-11-27T12:17:41.281Z,100693.22
2022-11-27T12:20:21.219Z,100696.63
2022-11-27T12:23:21.932Z,100686.78
2022-11-27T12:25:57.158Z,100690.16
2022-11-27T12:28:40.727Z,100682.84
2022-11-27T12:31:16.240Z,100676.53
2022-11-27T12:34:02.798Z,100645.56
2022-11-27T12:36:44.726Z,100648.94
2022-11-27T12:39:19.143Z,100643.59
2022-11-27T12:42:04.539Z,100650.56
2022-11-27T12:44:50.263Z,100642.56
2022-11-27T12:47:25.725Z,100641.66
2022-11-27T12:50:00.618Z,100637.13
2022-11-27T12:52:34.501Z,100622.00
2022-11-27T12:55:06.589Z,100629.75
2022-11-27T12:57:40.035Z,100614.72
2022-11-27T13:00:21.444Z,100610.22
2022-11-27T13:02:59.957Z,100612.81
2022-11-27T13:05:32.747Z,100608.19
2022-11-27T13:08:05.367Z,100619.41
2022-11-27T13:10:38.604Z,100613.97
2022-11-27T13:13:11.177Z,100618.13
2022-11-27T13:15:46.725Z,100613.47
2022-11-27T13:18:21.922Z,100607.16
2022-11-27T13:20:52.944Z,100589.44
2022-11-27T13:23:23.410Z,100587.56
2022-11-27T13:25:57.094Z,100589.34
2022-11-27T13:28:30.072Z,100575.19
2022-11-27T13:31:03.048Z,100592.00
2022-11-27T13:33:39.082Z,100578.91
2022-11-27T13:36:10.630Z,100568.41
2022-11-27T13:38:42.076Z,100567.56
2022-11-27T13:41:11.740Z,100573.81
2022-11-27T13:43:45.318Z,100577.38
2022-11-27T13:46:23.163Z,100569.50
2022-11-27T13:48:55.275Z,100575.56
2022-11-27T13:51:28.099Z,100568.66
2022-11-27T13:54:09.903Z,100558.16
2022-11-27T13:56:39.554Z,100567.03
2022-11-27T13:59:17.231Z,100574.13
2022-11-27T14:02:00.787Z,100579.44
2022-11-27T14:04:31.492Z,100570.72
2022-11-27T14:07:06.314Z,100567.13
2022-11-27T14:09:39.024Z,100578.53
2022-11-27T14:12:21.228Z,100574.91
2022-11-27T14:15:03.747Z,100574.97
2022-11-27T14:17:41.276Z,100582.91
2022-11-27T14:20:28.053Z,100589.94
2022-11-27T14:23:14.244Z,100581.22
2022-11-27T14:25:44.071Z,100568.09
2022-11-27T14:28:18.066Z,100545.31
2022-11-27T14:30:50.177Z,100545.56
2022-11-27T14:33:23.790Z,100545.03
2022-11-27T14:35:54.231Z,100541.81
2022-11-27T14:38:24.703Z,100544.06
2022-11-27T14:40:56.327Z,100541.25
2022-11-27T14:43:27.231Z,100553.28
2022-11-27T14:45:59.055Z,100551.88
2022-11-27T14:48:34.257Z,100567.78
2022-11-27T14:51:04.211Z,100567.66
2022-11-27T14:53:34.369Z,100572.78
2022-11-27T14:56:03.917Z,100569.09
2022-11-27T14:58:33.667Z,100575.94
2022-11-27T15:01:05.481Z,100581.97
2022-11-27T15:03:37.805Z,100576.53
2022-11-27T15:06:10.008Z,100569.38
2022-11-27T15:08:40.819Z,100562.25
2022-11-27T15:11:10.440Z,100574.56
2022-11-27T15:13:40.680Z,100559.63
2022-11-27T15:16:16.967Z,100553.53
2022-11-27T15:18:51.551Z,100550.06
2022-11-27T15:21:25.101Z,100540.47
2022-11-27T15:23:55.800Z,100544.13
2022-11-27T15:26:36.473Z,100539.06
2022-11-27T15:29:06.528Z,100532.38
2022-11-27T15:31:38.022Z,100529.19
2022-11-27T15:34:24.529Z,100536.59
2022-11-27T15:36:59.766Z,100546.59
2022-11-27T15:39:32.958Z,100540.72
2022-11-27T15:42:04.149Z,100538.22
2022-11-27T15:44:35.496Z,100534.78
2022-11-27T15:47:06.013Z,100529.53
2022-11-27T15:49:38.158Z,100524.31
2022-11-27T15:52:07.776Z,100517.41
2022-11-27T15:54:37.332Z,100507.13
2022-11-27T15:57:06.882Z,100495.13
2022-11-27T15:59:36.454Z,100484.94
2022-11-27T16:02:06.416Z,100501.22
2022-11-27T16:04:38.977Z,100505.94
2022-11-27T16:07:09.658Z,100513.19
2022-11-27T16:09:39.803Z,100514.22
2022-11-27T16:12:09.593Z,100515.13
2022-11-27T16:14:40.685Z,100515.13
2022-11-27T16:17:10.322Z,100493.94
2022-11-27T16:19:42.519Z,100498.16
2022-11-27T16:22:12.851Z,100485.72
2022-11-27T16:24:44.092Z,100481.09
2022-11-27T16:27:13.787Z,100464.22
2022-11-27T16:29:44.217Z,100481.63
2022-11-27T16:32:14.047Z,100466.88
2022-11-27T16:34:46.356Z,100461.88
2022-11-27T16:37:18.599Z,100462.19
2022-11-27T16:39:48.337Z,100451.97
2022-11-27T16:42:17.927Z,100444.28
2022-11-27T16:44:48.078Z,100435.75
2022-11-27T16:47:17.852Z,100430.56
2022-11-27T16:49:51.223Z,100427.91
2022-11-27T16:52:20.887Z,100441.78
2022-11-27T16:54:50.470Z,100453.88
2022-11-27T16:57:20.406Z,100451.00
2022-11-27T16:59:50.824Z,100447.31
2022-11-27T17:02:21.878Z,100434.84
2022-11-27T17:04:54.051Z,100434.66
2022-11-27T17:07:23.747Z,100422.22
2022-11-27T17:09:53.315Z,100422.97
2022-11-27T17:12:22.845Z,100425.59
2022-11-27T17:14:52.458Z,100419.44
2022-11-27T17:17:21.999Z,100409.75
2022-11-27T17:20:00.186Z,100408.72
2022-11-27T17:22:30.830Z,100398.06
2022-11-27T17:25:00.742Z,100398.81
2022-11-27T17:27:30.290Z,100389.88
2022-11-27T17:30:00.004Z,100382.81
2022-11-27T17:32:30.101Z,100375.69
2022-11-27T17:35:02.674Z,100363.44
2022-11-27T17:37:32.543Z,100351.19
2022-11-27T17:40:02.142Z,100350.34
2022-11-27T17:42:31.710Z,100335.53
2022-11-27T17:45:01.727Z,100346.97
2022-11-27T17:47:31.264Z,100318.03
2022-11-27T17:50:03.560Z,100334.75
2022-11-27T17:52:33.510Z,100310.19
2022-11-27T17:55:03.173Z,100311.16
2022-11-27T17:57:33.354Z,100308.63
2022-11-27T18:00:03.649Z,100304.38
2022-11-27T18:02:43.636Z,100313.22
2022-11-27T18:05:15.860Z,100317.59
2022-11-27T18:07:46.190Z,100334.25
2022-11-27T18:10:15.961Z,100336.00
2022-11-27T18:12:45.555Z,100345.63
2022-11-27T18:15:15.583Z,100336.81
2022-11-27T18:17:45.601Z,100337.56
2022-11-27T18:20:17.913Z,100319.06
2022-11-27T18:22:47.492Z,100306.00
2022-11-27T18:25:17.067Z,100288.06
2022-11-27T18:27:46.637Z,100293.97
2022-11-27T18:30:17.256Z,100286.72
2022-11-27T18:32:46.848Z,100284.63
2022-11-27T18:35:19.063Z,100266.59
2022-11-27T18:37:48.610Z,100259.13
2022-11-27T18:40:18.394Z,100260.47
2022-11-27T18:42:47.960Z,100256.53
2022-11-27T18:45:32.789Z,100250.78
2022-11-27T18:48:02.835Z,100255.38
2022-11-27T18:50:35.026Z,100263.47
2022-11-27T18:53:05.222Z,100252.19
2022-11-27T18:55:36.503Z,100253.13
2022-11-27T18:58:06.112Z,100262.78
2022-11-27T19:00:37.338Z,100267.09
2022-11-27T19:03:07.006Z,100273.22
2022-11-27T19:05:40.903Z,100277.50
2022-11-27T19:08:10.468Z,100277.41
2022-11-27T19:10:40.130Z,100293.88
2022-11-27T19:13:10.026Z,100292.69
2022-11-27T19:15:41.756Z,100291.56
2022-11-27T19:18:11.386Z,100291.31
2022-11-27T19:20:43.660Z,100290.19
2022-11-27T19:23:14.624Z,100294.34
2022-11-27T19:25:45.337Z,100277.56
2022-11-27T19:28:15.644Z,100266.94
2022-11-27T19:30:46.475Z,100266.72
2022-11-27T19:33:16.086Z,100260.50
2022-11-27T19:35:48.257Z,100243.72
2022-11-27T19:38:17.930Z,100245.41
2022-11-27T19:40:49.460Z,100227.88
2022-11-27T19:43:19.179Z,100230.50
2022-11-27T19:45:50.031Z,100230.44
2022-11-27T19:48:23.141Z,100223.41
2022-11-27T19:50:56.285Z,100248.88
2022-11-27T19:53:26.689Z,100239.19
2022-11-27T19:55:57.115Z,100238.22
2022-11-27T19:58:26.853Z,100237.34
2022-11-27T20:00:56.698Z,100228.50
2022-11-27T20:03:26.430Z,100228.50
2022-11-27T20:06:07.250Z,100227.56
2022-11-27T20:08:37.643Z,100221.44
2022-11-27T20:11:08.655Z,100205.59
2022-11-27T20:13:38.283Z,100214.34
2022-11-27T20:16:09.894Z,100206.38
2022-11-27T20:18:40.594Z,100209.84
2022-11-27T20:21:14.750Z,100206.31
2022-11-27T20:23:45.360Z,100197.50
2022-11-27T20:26:17.911Z,100197.50
2022-11-27T20:28:48.054Z,100195.84
2022-11-27T20:31:22.220Z,100197.59
2022-11-27T20:33:51.950Z,100184.53
2022-11-27T20:36:25.243Z,100194.25
2022-11-27T20:38:55.605Z,100196.91
2022-11-27T20:41:26.294Z,100186.44
2022-11-27T20:43:58.234Z,100171.59
2022-11-27T20:46:28.825Z,100180.38
2022-11-27T20:48:59.215Z,100190.00
2022-11-27T20:51:34.961Z,100176.84
2022-11-27T20:54:11.063Z,100176.84
2022-11-27T20:56:43.046Z,100162.75
2022-11-27T20:59:12.938Z,100157.41
2022-11-27T21:01:43.596Z,100173.09
2022-11-27T21:04:21.557Z,100166.88
2022-11-27T21:06:54.191Z,100161.50
2022-11-27T21:09:24.922Z,100161.44
2022-11-27T21:11:54.877Z,100154.41
2022-11-27T21:14:25.565Z,100164.03
2022-11-27T21:16:58.034Z,100155.28
2022-11-27T21:19:32.329Z,100158.88
2022-11-27T21:22:04.754Z,100163.41
2022-11-27T21:24:34.717Z,100157.50
2022-11-27T21:27:05.282Z,100147.28
2022-11-27T21:29:35.366Z,100130.84
2022-11-27T21:32:06.156Z,100129.31
2022-11-27T21:34:35.937Z,100126.03
2022-11-27T21:37:08.195Z,100131.44
2022-11-27T21:39:37.958Z,100143.75
2022-11-27T21:42:07.675Z,100118.38
2022-11-27T21:44:41.243Z,100119.28
2022-11-27T21:47:12.275Z,100118.44
2022-11-27T21:49:42.494Z,100103.44
2022-11-27T21:52:15.034Z,100105.19
2022-11-27T21:54:44.934Z,100079.63
2022-11-27T21:57:17.383Z,100077.75
2022-11-27T21:59:46.953Z,100088.34
2022-11-27T22:02:16.578Z,100086.88
2022-11-27T22:04:47.123Z,100082.84
2022-11-27T22:07:19.299Z,100085.66
2022-11-27T22:09:48.842Z,100087.47
2022-11-27T22:12:18.386Z,100091.00
2022-11-27T22:14:48.139Z,100085.66
2022-11-27T22:17:19.077Z,100084.69
2022-11-27T22:19:48.925Z,100081.97
2022-11-27T22:22:21.118Z,100102.94
2022-11-27T22:24:50.733Z,100108.03
2022-11-27T22:27:20.290Z,100112.28
2022-11-27T22:29:50.868Z,100122.69
2022-11-27T22:32:20.430Z,100123.53
2022-11-27T22:34:50.069Z,100109.53
2022-11-27T22:37:22.214Z,100109.66
2022-11-27T22:39:51.805Z,100107.25
2022-11-27T22:42:21.314Z,100113.69
2022-11-27T22:44:51.183Z,100115.63
2022-11-27T22:47:20.835Z,100106.22
2022-11-27T22:49:50.741Z,100101.13
2022-11-27T22:52:22.878Z,100096.97
2022-11-27T22:54:52.438Z,100089.31
2022-11-27T22:57:22.013Z,100096.66
2022-11-27T22:59:51.602Z,100086.41
2022-11-27T23:02:21.644Z,100086.59
2022-11-27T23:04:51.389Z,100074.50
2022-11-27T23:07:25.465Z,100066.78
2022-11-27T23:09:55.395Z,100072.28
2022-11-27T23:12:25.010Z,100072.38
2022-11-27T23:14:54.728Z,100068.94
2022-11-27T23:17:24.403Z,100055.91
2022-11-27T23:19:53.977Z,100055.06
2022-11-27T23:22:26.158Z,100058.59
2022-11-27T23:24:56.213Z,100048.09
2022-11-27T23:27:25.840Z,100046.34
2022-11-27T23:29:55.427Z,100052.53
2022-11-27T23:32:25.006Z,100041.25
2022-11-27T23:34:54.663Z,100048.22
2022-11-27T23:37:26.806Z,100042.91
2022-11-27T23:39:56.384Z,100038.53
2022-11-27T23:42:25.986Z,100036.78
2022-11-27T23:44:55.554Z,100021.97
2022-11-27T23:47:25.114Z,100019.34
2022-11-27T23:49:54.675Z,100017.66
2022-11-27T23:52:26.804Z,100014.16
2022-11-27T23:54:56.380Z,100010.63
2022-11-27T23:57:25.967Z,100016.72
2022-11-27T23:59:55.569Z,100004.53
